METAR Data
IDs: Format: Raw Decoded Include TAF

Data at: 0927 UTC 10 Dec 2022

METAR for:K6B9 (Skaneateles Arpt, NY, US)
Text:K6B9 100915Z AUTO 00000KT 10SM CLR M05/M05 A3034 RMK AO2
Temperature: -5.0°C ( 23°F)
Dewpoint: -5.0°C ( 23°F) [RH = 100%]
Pressure (altimeter):30.34 inches Hg (1027.5 mb)
Winds:calm
Visibility:10 or more sm (16+ km)
Ceiling:at least 12,000 feet AGL
Clouds:sky clear below 12,000 feet AGL
QC Flag:automated observation with no human augmentation
Text:K6B9 100855Z AUTO 00000KT 10SM CLR M06/M06 A3034 RMK AO2
Temperature: -6.0°C ( 21°F)
Dewpoint: -6.0°C ( 21°F) [RH = 100%]
Pressure (altimeter):30.34 inches Hg (1027.5 mb)
Winds:calm
Visibility:10 or more sm (16+ km)
Ceiling:at least 12,000 feet AGL
Clouds:sky clear below 12,000 feet AGL
QC Flag:automated observation with no human augmentation
Text:K6B9 100835Z AUTO 00000KT 9SM CLR M06/M06 A3034 RMK AO2
Temperature: -6.0°C ( 21°F)
Dewpoint: -6.0°C ( 21°F) [RH = 100%]
Pressure (altimeter):30.34 inches Hg (1027.5 mb)
Winds:calm
Visibility: 9 sm ( 14 km)
Ceiling:at least 12,000 feet AGL
Clouds:sky clear below 12,000 feet AGL
QC Flag:automated observation with no human augmentation
Text:K6B9 100815Z AUTO 00000KT 10SM CLR M07/M06 A3035 RMK AO2
Temperature: -7.0°C ( 19°F)
Dewpoint: -6.0°C ( 21°F) [RH = 108%]
Pressure (altimeter):30.35 inches Hg (1027.9 mb)
Winds:calm
Visibility:10 or more sm (16+ km)
Ceiling:at least 12,000 feet AGL
Clouds:sky clear below 12,000 feet AGL
QC Flag:automated observation with no human augmentation
Text:K6B9 100755Z AUTO 00000KT 10SM CLR M06/M06 A3035 RMK AO2
Temperature: -6.0°C ( 21°F)
Dewpoint: -6.0°C ( 21°F) [RH = 100%]
Pressure (altimeter):30.35 inches Hg (1027.9 mb)
Winds:calm
Visibility:10 or more sm (16+ km)
Ceiling:at least 12,000 feet AGL
Clouds:sky clear below 12,000 feet AGL
QC Flag:automated observation with no human augmentation
Text:K6B9 100735Z AUTO 00000KT 10SM CLR M07/M06 A3036 RMK AO2
Temperature: -7.0°C ( 19°F)
Dewpoint: -6.0°C ( 21°F) [RH = 108%]
Pressure (altimeter):30.36 inches Hg (1028.2 mb)
Winds:calm
Visibility:10 or more sm (16+ km)
Ceiling:at least 12,000 feet AGL
Clouds:sky clear below 12,000 feet AGL
QC Flag:automated observation with no human augmentation
Text:K6B9 100715Z AUTO 00000KT 10SM CLR M06/M06 A3036 RMK AO2
Temperature: -6.0°C ( 21°F)
Dewpoint: -6.0°C ( 21°F) [RH = 100%]
Pressure (altimeter):30.36 inches Hg (1028.2 mb)
Winds:calm
Visibility:10 or more sm (16+ km)
Ceiling:at least 12,000 feet AGL
Clouds:sky clear below 12,000 feet AGL
QC Flag:automated observation with no human augmentation
Text:K6B9 100655Z AUTO 00000KT 10SM CLR M06/M06 A3035 RMK AO2
Temperature: -6.0°C ( 21°F)
Dewpoint: -6.0°C ( 21°F) [RH = 100%]
Pressure (altimeter):30.35 inches Hg (1027.9 mb)
Winds:calm
Visibility:10 or more sm (16+ km)
Ceiling:at least 12,000 feet AGL
Clouds:sky clear below 12,000 feet AGL
QC Flag:automated observation with no human augmentation
Text:K6B9 100635Z AUTO 00000KT 10SM CLR M06/M06 A3036 RMK AO2
Temperature: -6.0°C ( 21°F)
Dewpoint: -6.0°C ( 21°F) [RH = 100%]
Pressure (altimeter):30.36 inches Hg (1028.2 mb)
Winds:calm
Visibility:10 or more sm (16+ km)
Ceiling:at least 12,000 feet AGL
Clouds:sky clear below 12,000 feet AGL
QC Flag:automated observation with no human augmentation
Text:K6B9 100615Z AUTO 00000KT 10SM CLR M06/M06 A3036 RMK AO2
Temperature: -6.0°C ( 21°F)
Dewpoint: -6.0°C ( 21°F) [RH = 100%]
Pressure (altimeter):30.36 inches Hg (1028.2 mb)
Winds:calm
Visibility:10 or more sm (16+ km)
Ceiling:at least 12,000 feet AGL
Clouds:sky clear below 12,000 feet AGL
QC Flag:automated observation with no human augmentation
Text:K6B9 100555Z AUTO 00000KT 10SM CLR M06/M06 A3036 RMK AO2
Temperature: -6.0°C ( 21°F)
Dewpoint: -6.0°C ( 21°F) [RH = 100%]
Pressure (altimeter):30.36 inches Hg (1028.2 mb)
Winds:calm
Visibility:10 or more sm (16+ km)
Ceiling:at least 12,000 feet AGL
Clouds:sky clear below 12,000 feet AGL
QC Flag:automated observation with no human augmentation
Text:K6B9 100535Z AUTO 00000KT 10SM CLR M05/M05 A3036 RMK AO2
Temperature: -5.0°C ( 23°F)
Dewpoint: -5.0°C ( 23°F) [RH = 100%]
Pressure (altimeter):30.36 inches Hg (1028.2 mb)
Winds:calm
Visibility:10 or more sm (16+ km)
Ceiling:at least 12,000 feet AGL
Clouds:sky clear below 12,000 feet AGL
QC Flag:automated observation with no human augmentation
Text:K6B9 100515Z AUTO 00000KT 10SM CLR M06/M06 A3036 RMK AO2
Temperature: -6.0°C ( 21°F)
Dewpoint: -6.0°C ( 21°F) [RH = 100%]
Pressure (altimeter):30.36 inches Hg (1028.2 mb)
Winds:calm
Visibility:10 or more sm (16+ km)
Ceiling:at least 12,000 feet AGL
Clouds:sky clear below 12,000 feet AGL
QC Flag:automated observation with no human augmentation
Text:K6B9 100455Z AUTO 00000KT 10SM CLR M07/M07 A3037 RMK AO2
Temperature: -7.0°C ( 19°F)
Dewpoint: -7.0°C ( 19°F) [RH = 100%]
Pressure (altimeter):30.37 inches Hg (1028.5 mb)
Winds:calm
Visibility:10 or more sm (16+ km)
Ceiling:at least 12,000 feet AGL
Clouds:sky clear below 12,000 feet AGL
QC Flag:automated observation with no human augmentation
Text:K6B9 100435Z AUTO 00000KT 10SM CLR M06/M06 A3037 RMK AO2
Temperature: -6.0°C ( 21°F)
Dewpoint: -6.0°C ( 21°F) [RH = 100%]
Pressure (altimeter):30.37 inches Hg (1028.5 mb)
Winds:calm
Visibility:10 or more sm (16+ km)
Ceiling:at least 12,000 feet AGL
Clouds:sky clear below 12,000 feet AGL
QC Flag:automated observation with no human augmentation
Text:K6B9 100415Z AUTO 00000KT 10SM CLR M06/M06 A3037 RMK AO2
Temperature: -6.0°C ( 21°F)
Dewpoint: -6.0°C ( 21°F) [RH = 100%]
Pressure (altimeter):30.37 inches Hg (1028.5 mb)
Winds:calm
Visibility:10 or more sm (16+ km)
Ceiling:at least 12,000 feet AGL
Clouds:sky clear below 12,000 feet AGL
QC Flag:automated observation with no human augmentation
Text:K6B9 100355Z AUTO 00000KT 10SM CLR M06/M06 A3037 RMK AO2
Temperature: -6.0°C ( 21°F)
Dewpoint: -6.0°C ( 21°F) [RH = 100%]
Pressure (altimeter):30.37 inches Hg (1028.5 mb)
Winds:calm
Visibility:10 or more sm (16+ km)
Ceiling:at least 12,000 feet AGL
Clouds:sky clear below 12,000 feet AGL
QC Flag:automated observation with no human augmentation
Text:K6B9 100335Z AUTO 00000KT 10SM CLR M05/M05 A3037 RMK AO2
Temperature: -5.0°C ( 23°F)
Dewpoint: -5.0°C ( 23°F) [RH = 100%]
Pressure (altimeter):30.37 inches Hg (1028.5 mb)
Winds:calm
Visibility:10 or more sm (16+ km)
Ceiling:at least 12,000 feet AGL
Clouds:sky clear below 12,000 feet AGL
QC Flag:automated observation with no human augmentation
Text:K6B9 100315Z AUTO 00000KT 10SM CLR M05/M05 A3037 RMK AO2
Temperature: -5.0°C ( 23°F)
Dewpoint: -5.0°C ( 23°F) [RH = 100%]
Pressure (altimeter):30.37 inches Hg (1028.5 mb)
Winds:calm
Visibility:10 or more sm (16+ km)
Ceiling:at least 12,000 feet AGL
Clouds:sky clear below 12,000 feet AGL
QC Flag:automated observation with no human augmentation
Text:K6B9 100255Z AUTO 00000KT 10SM CLR M05/M05 A3037 RMK AO2
Temperature: -5.0°C ( 23°F)
Dewpoint: -5.0°C ( 23°F) [RH = 100%]
Pressure (altimeter):30.37 inches Hg (1028.5 mb)
Winds:calm
Visibility:10 or more sm (16+ km)
Ceiling:at least 12,000 feet AGL
Clouds:sky clear below 12,000 feet AGL
QC Flag:automated observation with no human augmentation
Text:K6B9 100235Z AUTO 00000KT 10SM CLR M05/M05 A3037 RMK AO2
Temperature: -5.0°C ( 23°F)
Dewpoint: -5.0°C ( 23°F) [RH = 100%]
Pressure (altimeter):30.37 inches Hg (1028.5 mb)
Winds:calm
Visibility:10 or more sm (16+ km)
Ceiling:at least 12,000 feet AGL
Clouds:sky clear below 12,000 feet AGL
QC Flag:automated observation with no human augmentation
Text:K6B9 100215Z AUTO 00000KT 10SM CLR M05/M05 A3037 RMK AO2
Temperature: -5.0°C ( 23°F)
Dewpoint: -5.0°C ( 23°F) [RH = 100%]
Pressure (altimeter):30.37 inches Hg (1028.5 mb)
Winds:calm
Visibility:10 or more sm (16+ km)
Ceiling:at least 12,000 feet AGL
Clouds:sky clear below 12,000 feet AGL
QC Flag:automated observation with no human augmentation
Text:K6B9 100155Z AUTO 00000KT 10SM CLR M05/M05 A3037 RMK AO2
Temperature: -5.0°C ( 23°F)
Dewpoint: -5.0°C ( 23°F) [RH = 100%]
Pressure (altimeter):30.37 inches Hg (1028.5 mb)
Winds:calm
Visibility:10 or more sm (16+ km)
Ceiling:at least 12,000 feet AGL
Clouds:sky clear below 12,000 feet AGL
QC Flag:automated observation with no human augmentation
Text:K6B9 100135Z AUTO 00000KT 10SM CLR M05/M05 A3037 RMK AO2
Temperature: -5.0°C ( 23°F)
Dewpoint: -5.0°C ( 23°F) [RH = 100%]
Pressure (altimeter):30.37 inches Hg (1028.5 mb)
Winds:calm
Visibility:10 or more sm (16+ km)
Ceiling:at least 12,000 feet AGL
Clouds:sky clear below 12,000 feet AGL
QC Flag:automated observation with no human augmentation
Text:K6B9 100115Z AUTO 00000KT 10SM CLR M04/M04 A3036 RMK AO2
Temperature: -4.0°C ( 25°F)
Dewpoint: -4.0°C ( 25°F) [RH = 100%]
Pressure (altimeter):30.36 inches Hg (1028.2 mb)
Winds:calm
Visibility:10 or more sm (16+ km)
Ceiling:at least 12,000 feet AGL
Clouds:sky clear below 12,000 feet AGL
QC Flag:automated observation with no human augmentation
Text:K6B9 100055Z AUTO 00000KT 10SM CLR M04/M04 A3037 RMK AO2
Temperature: -4.0°C ( 25°F)
Dewpoint: -4.0°C ( 25°F) [RH = 100%]
Pressure (altimeter):30.37 inches Hg (1028.5 mb)
Winds:calm
Visibility:10 or more sm (16+ km)
Ceiling:at least 12,000 feet AGL
Clouds:sky clear below 12,000 feet AGL
QC Flag:automated observation with no human augmentation
Text:K6B9 100035Z AUTO 00000KT 10SM CLR M04/M04 A3037 RMK AO2
Temperature: -4.0°C ( 25°F)
Dewpoint: -4.0°C ( 25°F) [RH = 100%]
Pressure (altimeter):30.37 inches Hg (1028.5 mb)
Winds:calm
Visibility:10 or more sm (16+ km)
Ceiling:at least 12,000 feet AGL
Clouds:sky clear below 12,000 feet AGL
QC Flag:automated observation with no human augmentation
Text:K6B9 100015Z AUTO 00000KT 10SM CLR M04/M04 A3037 RMK AO2
Temperature: -4.0°C ( 25°F)
Dewpoint: -4.0°C ( 25°F) [RH = 100%]
Pressure (altimeter):30.37 inches Hg (1028.5 mb)
Winds:calm
Visibility:10 or more sm (16+ km)
Ceiling:at least 12,000 feet AGL
Clouds:sky clear below 12,000 feet AGL
QC Flag:automated observation with no human augmentation
Text:K6B9 092355Z AUTO 01003KT 10SM CLR M03/M03 A3037 RMK AO2
Temperature: -3.0°C ( 27°F)
Dewpoint: -3.0°C ( 27°F) [RH = 100%]
Pressure (altimeter):30.37 inches Hg (1028.5 mb)
Winds:from the N (10 degrees) at 3 MPH (3 knots; 1.5 m/s)
Visibility:10 or more sm (16+ km)
Ceiling:at least 12,000 feet AGL
Clouds:sky clear below 12,000 feet AGL
QC Flag:automated observation with no human augmentation
Text:K6B9 092335Z AUTO 01004KT 10SM CLR M03/M03 A3036 RMK AO2
Temperature: -3.0°C ( 27°F)
Dewpoint: -3.0°C ( 27°F) [RH = 100%]
Pressure (altimeter):30.36 inches Hg (1028.2 mb)
Winds:from the N (10 degrees) at 5 MPH (4 knots; 2.1 m/s)
Visibility:10 or more sm (16+ km)
Ceiling:at least 12,000 feet AGL
Clouds:sky clear below 12,000 feet AGL
QC Flag:automated observation with no human augmentation
Text:K6B9 092315Z AUTO 36005KT 10SM CLR M03/M03 A3035 RMK AO2
Temperature: -3.0°C ( 27°F)
Dewpoint: -3.0°C ( 27°F) [RH = 100%]
Pressure (altimeter):30.35 inches Hg (1027.9 mb)
Winds:from the N (360 degrees) at 6 MPH (5 knots; 2.6 m/s)
Visibility:10 or more sm (16+ km)
Ceiling:at least 12,000 feet AGL
Clouds:sky clear below 12,000 feet AGL
QC Flag:automated observation with no human augmentation
Text:K6B9 092255Z AUTO 01005KT 10SM CLR M02/M03 A3035 RMK AO2
Temperature: -2.0°C ( 28°F)
Dewpoint: -3.0°C ( 27°F) [RH = 93%]
Pressure (altimeter):30.35 inches Hg (1027.9 mb)
Winds:from the N (10 degrees) at 6 MPH (5 knots; 2.6 m/s)
Visibility:10 or more sm (16+ km)
Ceiling:at least 12,000 feet AGL
Clouds:sky clear below 12,000 feet AGL
QC Flag:automated observation with no human augmentation
Text:K6B9 092235Z AUTO 00000KT 10SM CLR M03/M03 A3035 RMK AO2
Temperature: -3.0°C ( 27°F)
Dewpoint: -3.0°C ( 27°F) [RH = 100%]
Pressure (altimeter):30.35 inches Hg (1027.9 mb)
Winds:calm
Visibility:10 or more sm (16+ km)
Ceiling:at least 12,000 feet AGL
Clouds:sky clear below 12,000 feet AGL
QC Flag:automated observation with no human augmentation
Text:K6B9 092215Z AUTO 00000KT 10SM SCT018 M02/M03 A3035 RMK AO2
Temperature: -2.0°C ( 28°F)
Dewpoint: -3.0°C ( 27°F) [RH = 93%]
Pressure (altimeter):30.35 inches Hg (1027.9 mb)
Winds:calm
Visibility:10 or more sm (16+ km)
Ceiling:at least 12,000 feet AGL
Clouds: scattered clouds at 1800 feet AGL
QC Flag:automated observation with no human augmentation
Text:K6B9 092155Z AUTO 00000KT 10SM OVC018 M01/M03 A3035 RMK AO2
Temperature: -1.0°C ( 30°F)
Dewpoint: -3.0°C ( 27°F) [RH = 86%]
Pressure (altimeter):30.35 inches Hg (1027.9 mb)
Winds:calm
Visibility:10 or more sm (16+ km)
Ceiling:1800 feet AGL
Clouds: overcast cloud deck at 1800 feet AGL
QC Flag:automated observation with no human augmentation
Text:K6B9 092135Z AUTO 00000KT 10SM OVC018 M01/M03 A3035 RMK AO2
Temperature: -1.0°C ( 30°F)
Dewpoint: -3.0°C ( 27°F) [RH = 86%]
Pressure (altimeter):30.35 inches Hg (1027.9 mb)
Winds:calm
Visibility:10 or more sm (16+ km)
Ceiling:1800 feet AGL
Clouds: overcast cloud deck at 1800 feet AGL
QC Flag:automated observation with no human augmentation